No particular awareness of the weather is required.    There are no Weather-warnings


Meteo18 Weather Cam more information Meteo18 Weather Cam


Thunder radar more information blitzortung!


Rain radar more information rain snow radar


Visit our other weather sites:

Template documentation
and downloads

And another site



Weather Underground History page Text

Daily Summary for November 22, 2017 Units:  English    Metric   Both
« Previous Day
Next Day »
Daily Weekly Monthly Yearly Custom
  High: Low: Average:
Temperature: TemperatureC °F 1.6 °F 8.2 °F
Dew Point: DewpointC °F 1.4 °F 5.3 °F
Humidity: Humidity % 62 % 82 %
Wind Speed: WindSpeedKMH mph 0.0 mph 1.6 mph
Wind Gust: WindSpeedGustKMH mph - -
Wind:- - SSW
Pressure: PressurehPa in 1008.0 in -
Precipitation: 0.0 in    
Historical Graphs
 
 
Tabular Data for November 22, 2017
Time Temperature Dew Point Pressure Wind Wind Speed Wind Gust Humidity Rainfall Rate (Hourly)
TemperatureC °F DewpointC °F PressurehPa in Calm     Humidity % HourlyPrecipMM in
00:02 4.0 °F 3.6 °F 1017.2 in Calm   1.6 mph 97 % 0.0 in
00:07 3.9 °F 3.5 °F 1017.2 in Calm   1.6 mph 97 % 0.0 in
00:12 3.8 °F 3.4 °F 1017.2 in Calm   1.6 mph 97 % 0.0 in
00:22 3.6 °F 3.2 °F 1017.2 in SSW 1.6 mph 1.6 mph 97 % 0.0 in
00:32 3.4 °F 3.0 °F 1017.2 in Calm   3.2 mph 97 % 0.0 in
00:47 3.6 °F 3.2 °F 1017.2 in Calm   1.6 mph 97 % 0.0 in
01:02 3.5 °F 3.1 °F 1017.2 in Calm   1.6 mph 97 % 0.0 in
01:12 3.4 °F 3.0 °F 1016.8 in Calm   1.6 mph 97 % 0.0 in
01:22 3.5 °F 3.1 °F 1016.8 in SW 1.6 mph 1.6 mph 97 % 0.0 in
01:32 4.0 °F 3.6 °F 1016.8 in Calm   3.2 mph 97 % 0.0 in
01:42 4.0 °F 3.6 °F 1016.8 in Calm   3.2 mph 97 % 0.0 in
01:47 3.7 °F 3.3 °F 1016.8 in Calm   3.2 mph 97 % 0.0 in
02:02 2.8 °F 2.2 °F 1016.5 in Calm   1.6 mph 96 % 0.0 in
02:12 2.6 °F 2.2 °F 1016.5 in Calm   1.6 mph 97 % 0.0 in
02:17 2.4 °F 2.0 °F 1016.5 in Calm     97 % 0.0 in
02:32 2.2 °F 1.8 °F 1016.5 in Calm     97 % 0.0 in
02:37 2.2 °F 1.8 °F 1016.5 in Calm     97 % 0.0 in
02:42 2.2 °F 1.8 °F 1016.5 in Calm     97 % 0.0 in
02:47 2.2 °F 1.8 °F 1016.5 in Calm     97 % 0.0 in
02:52 2.2 °F 1.8 °F 1016.5 in Calm     97 % 0.0 in
02:57 2.1 °F 1.7 °F 1016.5 in Calm     97 % 0.0 in
03:22 1.6 °F 1.6 °F 1016.1 in Calm     100 % 0.0 in
03:27 1.6 °F 1.6 °F 1016.1 in Calm     100 % 0.0 in
08:47 1.7 °F 1.4 °F 1014.4 in WNW 1.6 mph -1607.4 mph 98 % 0.0 in
09:02 1.9 °F 1.6 °F 1014.4 in Calm   3.2 mph 98 % 0.0 in
09:12 1.9 °F 1.5 °F 1014.4 in Calm   1.6 mph 97 % 0.0 in
09:17 2.1 °F 1.7 °F 1014.4 in Calm   1.6 mph 97 % 0.0 in
09:27 2.6 °F 2.2 °F 1014.4 in Calm     97 % 0.0 in
09:47 3.2 °F 2.8 °F 1014.1 in Calm   3.2 mph 97 % 0.0 in
10:02 3.7 °F 3.3 °F 1014.1 in SW 1.6 mph 4.8 mph 97 % 0.0 in
10:17 4.4 °F 4.0 °F 1013.8 in Calm   3.2 mph 97 % 0.0 in
10:22 5.3 °F 5.0 °F 1013.8 in Calm   1.6 mph 98 % 0.0 in
10:32 5.7 °F 5.4 °F 1013.8 in Calm     98 % 0.0 in
10:37 5.3 °F 4.9 °F 1013.8 in Calm     97 % 0.0 in
10:47 5.4 °F 5.0 °F 1013.8 in Calm     97 % 0.0 in
10:57 5.8 °F 5.4 °F 1013.8 in Calm     97 % 0.0 in
11:02 6.1 °F 5.7 °F 1013.8 in SW 1.6 mph   97 % 0.0 in
11:17 6.3 °F 5.6 °F 1013.4 in SW 1.6 mph 3.2 mph 95 % 0.0 in
11:32 7.3 °F 6.4 °F 1013.1 in Calm   3.2 mph 94 % 0.0 in
11:37 7.5 °F 6.3 °F 1013.1 in SW 1.6 mph 3.2 mph 92 % 0.0 in
11:42 7.7 °F 6.3 °F 1013.1 in Calm   1.6 mph 91 % 0.0 in
11:47 8.0 °F 6.3 °F 1013.1 in Calm   3.2 mph 89 % 0.0 in
11:52 8.3 °F 6.6 °F 1012.8 in South 1.6 mph 3.2 mph 89 % 0.0 in
12:02 9.0 °F 7.0 °F 1012.8 in Calm   3.2 mph 87 % 0.0 in
12:12 9.6 °F 7.2 °F 1012.8 in Calm   3.2 mph 85 % 0.0 in
12:17 9.8 °F 6.9 °F 1012.4 in SSE 1.6 mph 3.2 mph 82 % 0.0 in
12:22 9.9 °F 7.1 °F 1012.4 in Calm   3.2 mph 83 % 0.0 in
12:27 10.3 °F 7.2 °F 1012.1 in SSE 1.6 mph 3.2 mph 81 % 0.0 in
12:32 10.6 °F 7.1 °F 1012.1 in Calm   3.2 mph 79 % 0.0 in
12:42 11.0 °F 7.5 °F 1012.1 in SE 1.6 mph 4.8 mph 79 % 0.0 in
12:52 11.2 °F 7.3 °F 1011.7 in Calm   3.2 mph 77 % 0.0 in
13:02 11.7 °F 7.8 °F 1011.7 in Calm   3.2 mph 77 % 0.0 in
13:12 11.8 °F 7.9 °F 1011.4 in Calm   3.2 mph 77 % 0.0 in
13:17 12.1 °F 8.0 °F 1011.4 in SW 1.6 mph 4.8 mph 76 % 0.0 in
13:22 12.3 °F 7.8 °F 1011.4 in SW 1.6 mph 4.8 mph 74 % 0.0 in
13:37 13.1 °F 8.6 °F 1011.1 in SSW 1.6 mph 6.4 mph 74 % 0.0 in
13:42 13.3 °F 8.4 °F 1011.1 in SSW 3.2 mph 6.4 mph 72 % 0.0 in
14:02 14.1 °F 8.3 °F 1010.7 in South 3.2 mph 8.0 mph 68 % 0.0 in
14:52 15.2 °F 8.4 °F 1010.0 in SE 3.2 mph 8.0 mph 64 % 0.0 in
15:02 15.2 °F 8.2 °F 1010.0 in SE 4.8 mph 9.7 mph 63 % 0.0 in
15:12 15.1 °F 8.1 °F 1010.0 in ESE 3.2 mph 6.4 mph 63 % 0.0 in
15:32 15.4 °F 8.4 °F 1009.7 in SE 1.6 mph 6.4 mph 63 % 0.0 in
15:37 15.4 °F 8.6 °F 1009.7 in SE 1.6 mph 6.4 mph 64 % 0.0 in
15:42 15.3 °F 8.3 °F 1009.7 in Calm   4.8 mph 63 % 0.0 in
15:52 15.1 °F 7.9 °F 1009.4 in ESE 4.8 mph 4.8 mph 62 % 0.0 in
15:57 15.0 °F 8.5 °F 1009.4 in SE 1.6 mph 6.4 mph 65 % 0.0 in
16:02 14.9 °F 7.9 °F 1009.4 in Calm   6.4 mph 63 % 0.0 in
16:17 15.2 °F 8.7 °F 1009.4 in SSW 1.6 mph 3.2 mph 65 % 0.0 in
16:22 14.9 °F 8.4 °F 1009.4 in SW 3.2 mph 4.8 mph 65 % 0.0 in
16:32 14.4 °F 8.1 °F 1009.4 in SSW 1.6 mph 4.8 mph 66 % 0.0 in
16:52 13.6 °F 8.0 °F 1009.4 in SW 3.2 mph 6.4 mph 69 % 0.0 in
16:57 13.3 °F 7.9 °F 1009.4 in SW 6.4 mph 8.0 mph 70 % 0.0 in
17:02 13.0 °F 7.9 °F 1009.4 in SSW 3.2 mph 8.0 mph 71 % 0.0 in
17:12 12.6 °F 7.9 °F 1009.0 in SSW 3.2 mph 8.0 mph 73 % 0.0 in
17:17 12.3 °F 7.8 °F 1009.0 in South 1.6 mph 8.0 mph 74 % 0.0 in
17:22 12.1 °F 7.8 °F 1009.0 in SW 1.6 mph 6.4 mph 75 % 0.0 in
17:32 11.9 °F 7.8 °F 1009.0 in Calm   4.8 mph 76 % 0.0 in
17:37 11.8 °F 7.5 °F 1009.0 in Calm   3.2 mph 75 % 0.0 in
17:42 11.6 °F 7.5 °F 1009.0 in SW 1.6 mph 3.2 mph 76 % 0.0 in
17:47 11.4 °F 7.3 °F 1009.0 in SSW 3.2 mph 3.2 mph 76 % 0.0 in
18:02 11.2 °F 7.1 °F 1009.0 in SSW 1.6 mph 4.8 mph 76 % 0.0 in
18:12 10.8 °F 6.9 °F 1009.0 in SSW 1.6 mph 4.8 mph 77 % 0.0 in
18:22 10.5 °F 6.8 °F 1009.0 in SW 1.6 mph 4.8 mph 78 % 0.0 in
18:27 10.3 °F 6.6 °F 1009.0 in SW 1.6 mph 4.8 mph 78 % 0.0 in
18:32 10.2 °F 6.5 °F 1009.0 in WSW 1.6 mph 4.8 mph 78 % 0.0 in
18:37 10.2 °F 6.7 °F 1009.0 in SSW 1.6 mph 4.8 mph 79 % 0.0 in
18:52 9.8 °F 6.5 °F 1008.7 in SSW 1.6 mph 4.8 mph 80 % 0.0 in
19:02 9.8 °F 6.5 °F 1008.7 in SSW 3.2 mph 6.4 mph 80 % 0.0 in
19:12 9.7 °F 6.2 °F 1008.4 in SSW 6.4 mph 8.0 mph 79 % 0.0 in
19:22 9.2 °F 6.1 °F 1008.7 in SSW 6.4 mph 8.0 mph 81 % 0.0 in
19:32 9.4 °F 6.1 °F 1008.7 in SSW 6.4 mph 8.0 mph 80 % 0.0 in
19:37 9.5 °F 6.0 °F 1008.7 in SSW 3.2 mph 8.0 mph 79 % 0.0 in
19:47 9.6 °F 6.1 °F 1008.7 in SSW 4.8 mph 9.7 mph 79 % 0.0 in
20:02 9.3 °F 5.8 °F 1008.7 in SSW 3.2 mph 6.4 mph 79 % 0.0 in
20:17 8.9 °F 5.3 °F 1008.4 in SSW 3.2 mph 6.4 mph 78 % 0.0 in
20:32 9.1 °F 5.3 °F 1008.4 in SSW 1.6 mph 6.4 mph 77 % 0.0 in
20:42 8.9 °F 5.1 °F 1008.4 in SW 3.2 mph 6.4 mph 77 % 0.0 in
20:47 8.7 °F 4.9 °F 1008.4 in SSW 4.8 mph 6.4 mph 77 % 0.0 in
20:52 8.6 °F 5.0 °F 1008.4 in SSW 4.8 mph 6.4 mph 78 % 0.0 in
21:12 7.8 °F 4.2 °F 1008.4 in South 4.8 mph 9.7 mph 78 % 0.0 in
21:17 7.3 °F 3.9 °F 1008.4 in SSW 4.8 mph 9.7 mph 79 % 0.0 in
21:22 7.5 °F 4.3 °F 1008.4 in SW 3.2 mph 8.0 mph 80 % 0.0 in
21:32 7.9 °F 4.1 °F 1008.4 in South 3.2 mph 9.7 mph 77 % 0.0 in
21:42 7.8 °F 4.0 °F 1008.4 in SW 3.2 mph 8.0 mph 77 % 0.0 in
21:47 7.8 °F 4.0 °F 1008.4 in SSE 3.2 mph 6.4 mph 77 % 0.0 in
21:57 7.9 °F 4.1 °F 1008.4 in SSE 4.8 mph 6.4 mph 77 % 0.0 in
22:02 7.9 °F 4.1 °F 1008.4 in South 1.6 mph 6.4 mph 77 % 0.0 in
22:12 8.0 °F 4.2 °F 1008.0 in SE 1.6 mph 4.8 mph 77 % 0.0 in
22:17 8.0 °F 4.4 °F 1008.4 in Calm   6.4 mph 78 % 0.0 in
22:22 7.8 °F 4.2 °F 1008.4 in SSW 1.6 mph 6.4 mph 78 % 0.0 in
22:32 7.8 °F 4.4 °F 1008.4 in SSW 1.6 mph 3.2 mph 79 % 0.0 in
22:42 7.8 °F 4.4 °F 1008.0 in SW 3.2 mph 3.2 mph 79 % 0.0 in
22:47 7.7 °F 4.3 °F 1008.0 in Calm   4.8 mph 79 % 0.0 in
22:52 7.7 °F 4.5 °F 1008.0 in SE 4.8 mph 4.8 mph 80 % 0.0 in
22:57 7.8 °F 4.6 °F 1008.0 in SSE 1.6 mph 4.8 mph 80 % 0.0 in
23:02 7.7 °F 4.3 °F 1008.0 in SSW 3.2 mph 4.8 mph 79 % 0.0 in
23:12 7.7 °F 4.6 °F 1008.0 in SSE 1.6 mph 4.8 mph 81 % 0.0 in
23:17 7.8 °F 4.7 °F 1008.0 in South 1.6 mph 3.2 mph 81 % 0.0 in
23:27 7.6 °F 4.5 °F 1008.0 in South 1.6 mph 3.2 mph 81 % 0.0 in
23:32 7.7 °F 4.8 °F 1008.0 in South 1.6 mph 3.2 mph 82 % 0.0 in
23:42 7.7 °F 4.8 °F 1008.0 in South 1.6 mph 3.2 mph 82 % 0.0 in
23:47 7.7 °F 5.0 °F 1008.0 in Calm   3.2 mph 83 % 0.0 in
23:52 7.8 °F 4.9 °F 1008.0 in South 1.6 mph 3.2 mph 82 % 0.0 in
Meteo18
Compliments of Weather Underground - 4 mb

Script developed by  Jim McMurry - jmcmurry@mwt.net Adapted for the template by  Wim van der Kuil - Leuven-Template.eu

You find our weather info also at:

European Weather Network

Weather Underground

Equipment we use:

Weather-station
Davis Vue

Weather-program
Meteobridge

Weather-server
Raspberry PI 2 B+

Provider
1 and 1

Davis Vue

Meteobridge

Raspberry PI 2 B+

1 and 1